createdAt,value
2022-12-14T00:00:16.033Z,8.57
2022-12-14T00:02:45.064Z,9.30
2022-12-14T00:05:15.750Z,9.57
2022-12-14T00:07:44.175Z,9.90
2022-12-14T00:10:19.007Z,9.43
2022-12-14T00:12:47.378Z,9.03
2022-12-14T00:15:15.424Z,10.47
2022-12-14T00:17:43.537Z,9.77
2022-12-14T00:20:12.379Z,9.43
2022-12-14T00:22:40.418Z,9.87
2022-12-14T00:25:09.092Z,10.50
2022-12-14T00:27:43.756Z,9.70
2022-12-14T00:30:13.408Z,10.43
2022-12-14T00:32:42.240Z,11.23
2022-12-14T00:35:11.995Z,8.97
2022-12-14T00:37:40.273Z,9.73
2022-12-14T00:40:10.603Z,10.57
2022-12-14T00:43:51.254Z,10.10
2022-12-14T00:46:20.737Z,10.00
2022-12-14T00:48:48.856Z,9.80
2022-12-14T00:51:19.108Z,9.50
2022-12-14T00:53:47.367Z,10.27
2022-12-14T00:56:15.637Z,10.70
2022-12-14T00:58:44.145Z,10.40
2022-12-14T01:01:14.180Z,9.30
2022-12-14T01:03:44.057Z,10.73
2022-12-14T01:06:15.632Z,10.13
2022-12-14T01:08:43.776Z,9.97
2022-12-14T01:11:12.850Z,10.03
2022-12-14T01:13:41.904Z,9.80
2022-12-14T01:16:12.663Z,9.47
2022-12-14T01:18:44.381Z,10.27
2022-12-14T01:21:15.007Z,10.13
2022-12-14T01:23:44.053Z,9.90
2022-12-14T01:26:12.882Z,9.30
2022-12-14T01:28:41.409Z,9.77
2022-12-14T01:31:11.457Z,9.90
2022-12-14T01:33:40.041Z,10.90
2022-12-14T01:36:11.873Z,9.33
2022-12-14T01:38:39.987Z,9.93
2022-12-14T01:41:09.579Z,10.20
2022-12-14T01:43:48.904Z,9.57
2022-12-14T01:46:22.260Z,9.70
2022-12-14T01:48:52.507Z,11.03
2022-12-14T01:51:22.509Z,9.40
2022-12-14T01:53:51.754Z,9.53
2022-12-14T01:56:20.399Z,9.73
2022-12-14T01:58:48.771Z,10.20
2022-12-14T02:01:17.567Z,9.93
2022-12-14T02:03:49.812Z,9.97
2022-12-14T02:06:23.801Z,9.53
2022-12-14T02:08:54.509Z,8.50
2022-12-14T02:11:32.552Z,9.83
2022-12-14T02:14:01.074Z,10.07
2022-12-14T02:16:29.547Z,9.87
2022-12-14T02:18:57.760Z,11.10
2022-12-14T02:21:41.962Z,9.93
2022-12-14T02:24:34.315Z,9.00
2022-12-14T02:27:24.375Z,9.40
2022-12-14T02:30:07.791Z,10.40
2022-12-14T02:32:50.840Z,9.57
2022-12-14T02:35:26.852Z,10.03
2022-12-14T02:38:04.139Z,9.97
2022-12-14T02:40:39.198Z,9.97
2022-12-14T02:43:18.117Z,10.93
2022-12-14T02:45:57.200Z,10.77
2022-12-14T02:48:28.137Z,10.53
2022-12-14T02:51:04.126Z,9.33
2022-12-14T02:53:38.772Z,10.13
2022-12-14T02:56:09.832Z,10.00
2022-12-14T02:58:40.234Z,10.67
2022-12-14T03:01:15.091Z,9.80
2022-12-14T03:03:43.606Z,10.00
2022-12-14T03:06:15.691Z,10.57
2022-12-14T03:08:47.591Z,10.93
2022-12-14T03:11:20.871Z,9.60
2022-12-14T03:13:53.973Z,9.87
2022-12-14T03:16:27.652Z,10.07
2022-12-14T03:19:01.838Z,10.53
2022-12-14T03:21:34.039Z,9.57
2022-12-14T03:24:07.368Z,10.90
2022-12-14T03:26:45.610Z,10.80
2022-12-14T03:29:21.741Z,9.30
2022-12-14T03:31:55.747Z,10.87
2022-12-14T03:34:31.702Z,10.30
2022-12-14T03:37:05.686Z,10.23
2022-12-14T03:39:36.206Z,11.00
2022-12-14T03:42:12.131Z,11.07
2022-12-14T03:44:49.291Z,11.10
2022-12-14T03:47:32.617Z,10.93
2022-12-14T03:50:03.479Z,10.87
2022-12-14T03:52:37.432Z,11.57
2022-12-14T03:55:15.867Z,11.53
2022-12-14T03:57:54.443Z,11.53
2022-12-14T04:00:24.904Z,9.90
2022-12-14T04:03:03.113Z,10.97
2022-12-14T04:05:39.384Z,11.27
2022-12-14T04:08:17.141Z,10.83
2022-12-14T04:11:05.513Z,11.30
2022-12-14T04:13:56.429Z,9.90
2022-12-14T04:16:46.597Z,11.50
2022-12-14T04:19:21.034Z,11.07
2022-12-14T04:21:55.569Z,10.90
2022-12-14T04:24:48.283Z,10.60
2022-12-14T04:27:20.872Z,10.13
2022-12-14T04:29:56.304Z,10.73
2022-12-14T04:32:29.380Z,10.90
2022-12-14T04:35:03.570Z,10.13
2022-12-14T04:37:32.480Z,10.13
2022-12-14T04:40:06.432Z,11.27
2022-12-14T04:42:38.093Z,12.53
2022-12-14T04:45:11.943Z,10.90
2022-12-14T04:47:45.529Z,12.23
2022-12-14T04:50:21.869Z,11.70
2022-12-14T04:52:53.832Z,12.20
2022-12-14T04:55:28.612Z,10.43
2022-12-14T04:58:01.042Z,11.50
2022-12-14T05:00:29.955Z,11.67
2022-12-14T05:03:14.620Z,10.67
2022-12-14T05:05:54.250Z,11.20
2022-12-14T05:08:32.539Z,12.07
2022-12-14T05:11:39.607Z,12.40
2022-12-14T05:13:55.611Z,10.90
2022-12-14T05:16:25.528Z,11.53
2022-12-14T05:18:54.246Z,11.93
2022-12-14T05:21:41.530Z,11.13
2022-12-14T05:24:10.228Z,11.77
2022-12-14T05:26:38.362Z,11.77
2022-12-14T05:29:06.787Z,12.80
2022-12-14T05:31:35.170Z,12.17
2022-12-14T05:34:03.302Z,12.27
2022-12-14T05:36:32.987Z,12.27
2022-12-14T05:39:01.269Z,10.60
2022-12-14T05:41:29.364Z,10.80
2022-12-14T05:43:57.411Z,11.63
2022-12-14T05:46:25.889Z,12.03
2022-12-14T05:48:54.583Z,11.70
2022-12-14T05:54:42.328Z,10.73
2022-12-14T05:57:13.041Z,10.37
2022-12-14T05:59:41.355Z,10.50
2022-12-14T06:02:10.095Z,11.63
2022-12-14T06:04:38.159Z,11.57
2022-12-14T06:07:06.267Z,11.53
2022-12-14T06:09:34.357Z,12.30
2022-12-14T06:12:03.140Z,12.87
2022-12-14T06:14:32.988Z,12.43
2022-12-14T06:17:02.622Z,11.13
2022-12-14T06:19:34.122Z,13.37
2022-12-14T06:22:02.800Z,13.00
2022-12-14T06:24:31.185Z,11.60
2022-12-14T06:26:59.312Z,11.93
2022-12-14T06:29:27.389Z,11.47
2022-12-14T06:31:57.362Z,11.73
2022-12-14T06:34:28.698Z,10.87
2022-12-14T06:36:57.623Z,12.47
2022-12-14T06:39:26.035Z,11.67
2022-12-14T06:41:54.847Z,11.33
2022-12-14T06:44:24.234Z,12.80
2022-12-14T06:46:53.376Z,12.03
2022-12-14T06:49:27.662Z,11.87
2022-12-14T06:51:56.935Z,11.00
2022-12-14T06:54:25.698Z,12.60
2022-12-14T06:56:55.092Z,11.97
2022-12-14T07:02:17.385Z,13.63
2022-12-14T07:04:47.700Z,15.57
2022-12-14T07:07:17.070Z,14.47
2022-12-14T07:09:46.019Z,12.00
2022-12-14T07:12:29.189Z,13.10
2022-12-14T07:14:57.826Z,12.70
2022-12-14T07:17:29.597Z,15.10
2022-12-14T07:19:59.516Z,12.63
2022-12-14T07:22:27.866Z,12.43
2022-12-14T07:24:56.594Z,18.80
2022-12-14T07:27:25.643Z,17.93
2022-12-14T07:29:54.266Z,16.13
2022-12-14T07:32:22.789Z,14.10
2022-12-14T07:34:53.699Z,13.20
2022-12-14T07:37:24.237Z,13.90
2022-12-14T07:40:10.333Z,15.13
2022-12-14T07:42:38.788Z,12.83
2022-12-14T07:45:07.696Z,13.63
2022-12-14T07:47:36.412Z,13.67
2022-12-14T07:50:04.846Z,14.93
2022-12-14T07:52:37.561Z,13.97
2022-12-14T07:55:07.335Z,14.23
2022-12-14T07:57:35.990Z,14.03
2022-12-14T08:00:06.960Z,14.10
2022-12-14T08:02:35.713Z,14.60
2022-12-14T08:05:10.606Z,14.47
2022-12-14T08:07:42.306Z,13.10
2022-12-14T08:10:10.869Z,13.03
2022-12-14T08:12:39.293Z,13.87
2022-12-14T08:15:08.352Z,13.20
2022-12-14T08:17:36.411Z,18.37
2022-12-14T08:20:05.147Z,14.07
2022-12-14T08:22:33.453Z,15.67
2022-12-14T08:25:07.892Z,17.63
2022-12-14T08:27:36.261Z,15.27
2022-12-14T08:30:04.732Z,15.73
2022-12-14T08:32:34.630Z,13.47
2022-12-14T08:35:03.323Z,14.20
2022-12-14T08:37:31.432Z,14.37
2022-12-14T08:39:59.913Z,14.60
2022-12-14T08:42:30.346Z,14.53
2022-12-14T08:44:58.909Z,14.80
2022-12-14T08:47:27.477Z,14.00
2022-12-14T08:49:55.691Z,14.57
2022-12-14T08:52:24.500Z,15.00
2022-12-14T08:54:53.170Z,14.17
2022-12-14T08:57:23.458Z,15.17
2022-12-14T09:00:01.663Z,14.97
2022-12-14T09:02:31.977Z,14.27
2022-12-14T09:05:00.603Z,14.87
2022-12-14T09:07:32.207Z,15.03
2022-12-14T09:10:04.629Z,14.33
2022-12-14T09:12:36.447Z,14.20
2022-12-14T09:15:13.900Z,13.70
2022-12-14T09:17:43.879Z,14.27
2022-12-14T09:20:17.463Z,13.53
2022-12-14T09:22:47.204Z,14.50
2022-12-14T09:25:16.400Z,14.97
2022-12-14T09:27:45.009Z,14.67
2022-12-14T09:30:26.849Z,14.37
2022-12-14T09:32:56.384Z,14.43
2022-12-14T09:35:25.526Z,14.83
2022-12-14T09:37:54.672Z,13.97
2022-12-14T09:40:44.967Z,14.33
2022-12-14T09:43:30.247Z,14.13
2022-12-14T09:46:17.236Z,13.53
2022-12-14T09:48:46.993Z,12.83
2022-12-14T09:51:19.065Z,14.73
2022-12-14T09:59:20.885Z,13.67
2022-12-14T10:02:29.925Z,14.27
2022-12-14T10:05:05.453Z,14.80
2022-12-14T10:07:55.953Z,14.43
2022-12-14T10:10:29.282Z,14.93
2022-12-14T10:13:05.508Z,16.40
2022-12-14T10:15:47.453Z,14.17
2022-12-14T10:21:30.647Z,14.67
2022-12-14T10:24:03.082Z,14.50
2022-12-14T10:26:51.732Z,15.67
2022-12-14T10:29:30.245Z,14.23
2022-12-14T10:32:07.081Z,14.07
2022-12-14T10:34:53.219Z,14.80
2022-12-14T10:37:26.674Z,14.10
2022-12-14T10:40:33.466Z,14.13
2022-12-14T10:43:19.606Z,14.00
2022-12-14T10:45:55.222Z,14.97
2022-12-14T10:48:37.418Z,15.60
2022-12-14T10:51:23.243Z,15.60
2022-12-14T10:54:00.951Z,13.87
2022-12-14T10:56:32.747Z,13.90
2022-12-14T11:02:29.037Z,14.73
2022-12-14T11:04:59.322Z,13.43
2022-12-14T11:07:51.429Z,14.37
2022-12-14T11:13:34.417Z,14.37
2022-12-14T11:16:23.869Z,14.97
2022-12-14T11:19:00.730Z,14.03
2022-12-14T11:24:39.591Z,13.63
2022-12-14T11:27:13.564Z,14.57
2022-12-14T11:29:45.012Z,15.83
2022-12-14T11:35:55.059Z,14.73
2022-12-14T11:38:27.296Z,16.07
2022-12-14T11:40:57.515Z,13.40
2022-12-14T11:46:14.175Z,13.87
2022-12-14T11:48:52.787Z,15.07
2022-12-14T11:51:26.885Z,14.30
2022-12-14T11:54:06.647Z,15.77
2022-12-14T11:56:39.248Z,14.67
2022-12-14T11:59:07.582Z,14.20
2022-12-14T12:01:35.928Z,17.87
2022-12-14T12:04:04.134Z,14.20
2022-12-14T12:06:33.039Z,13.93
2022-12-14T12:09:02.894Z,14.30
2022-12-14T12:11:33.150Z,13.90
2022-12-14T12:14:06.831Z,14.10
2022-12-14T12:16:37.784Z,14.63
2022-12-14T12:19:12.421Z,15.67
2022-12-14T12:21:43.300Z,13.73
2022-12-14T12:24:31.034Z,14.90
2022-12-14T12:27:01.322Z,14.43
2022-12-14T12:29:35.298Z,14.37
2022-12-14T12:32:08.892Z,15.33
2022-12-14T12:34:46.237Z,12.67
2022-12-14T12:37:26.271Z,14.83
2022-12-14T12:40:02.581Z,14.43
2022-12-14T12:42:42.521Z,13.67
2022-12-14T12:45:22.176Z,13.80
2022-12-14T12:47:54.702Z,14.67
2022-12-14T12:50:28.061Z,13.93
2022-12-14T12:53:03.479Z,14.23
2022-12-14T12:55:38.441Z,14.37
2022-12-14T12:58:10.353Z,14.50
2022-12-14T13:00:42.379Z,15.10
2022-12-14T13:03:17.417Z,14.73
2022-12-14T13:05:47.658Z,14.47
2022-12-14T13:08:24.528Z,15.43
2022-12-14T13:13:50.041Z,15.00
2022-12-14T13:16:27.288Z,14.13
2022-12-14T13:19:25.467Z,14.00
2022-12-14T13:21:59.209Z,15.30
2022-12-14T13:24:34.454Z,14.83
2022-12-14T13:27:44.137Z,15.37
2022-12-14T13:30:31.871Z,13.97
2022-12-14T13:33:27.541Z,16.97
2022-12-14T13:36:30.151Z,14.70
2022-12-14T13:39:10.842Z,14.87
2022-12-14T13:41:52.595Z,13.37
2022-12-14T13:44:43.361Z,14.53
2022-12-14T13:47:16.059Z,15.60
2022-12-14T13:50:26.637Z,16.00
2022-12-14T13:52:46.256Z,13.87
2022-12-14T13:55:30.149Z,13.73
2022-12-14T13:58:10.015Z,15.93
2022-12-14T14:00:56.328Z,16.87
2022-12-14T14:03:52.254Z,16.00
2022-12-14T14:06:39.243Z,15.90
2022-12-14T14:10:02.360Z,15.87
2022-12-14T14:12:43.797Z,15.83
2022-12-14T14:15:38.160Z,14.63
2022-12-14T14:18:15.127Z,15.83
2022-12-14T14:20:44.545Z,15.30
2022-12-14T14:23:37.119Z,14.90
2022-12-14T14:26:29.981Z,16.07
2022-12-14T14:29:21.301Z,15.33
2022-12-14T14:31:51.910Z,14.77
2022-12-14T14:34:27.618Z,16.73
2022-12-14T14:36:56.347Z,15.37
2022-12-14T14:42:27.962Z,15.77
2022-12-14T14:44:58.342Z,16.87
2022-12-14T14:47:31.314Z,17.03
2022-12-14T14:50:01.989Z,16.70
2022-12-14T14:53:01.655Z,17.30
2022-12-14T14:56:02.894Z,16.07
2022-12-14T14:58:34.320Z,16.73
2022-12-14T15:01:18.094Z,17.57
2022-12-14T15:03:51.944Z,17.73
2022-12-14T15:06:22.894Z,18.00
2022-12-14T15:08:54.472Z,16.17
2022-12-14T15:11:35.483Z,18.43
2022-12-14T15:14:31.073Z,16.70
2022-12-14T15:17:00.802Z,19.03
2022-12-14T15:19:33.659Z,18.87
2022-12-14T15:22:06.593Z,18.87
2022-12-14T15:24:39.858Z,19.40
2022-12-14T15:27:24.391Z,19.73
2022-12-14T15:29:55.946Z,20.50
2022-12-14T15:32:25.974Z,20.13
2022-12-14T15:34:59.396Z,21.43
2022-12-14T15:37:33.274Z,21.00
2022-12-14T15:43:00.246Z,21.50
2022-12-14T15:48:49.220Z,21.40
2022-12-14T15:51:23.796Z,22.43
2022-12-14T16:02:22.329Z,22.50
2022-12-14T16:05:27.122Z,23.63
2022-12-14T16:08:12.890Z,21.43
2022-12-14T16:10:43.657Z,23.50
2022-12-14T16:19:26.684Z,25.07
2022-12-14T16:22:41.144Z,24.30
2022-12-14T16:25:54.069Z,24.63
2022-12-14T16:28:31.000Z,24.10
2022-12-14T16:31:14.745Z,24.67
2022-12-14T16:33:50.199Z,22.97
2022-12-14T16:39:52.885Z,21.70
2022-12-14T16:42:25.818Z,24.17
2022-12-14T16:44:54.868Z,24.77
2022-12-14T16:55:26.481Z,25.40
2022-12-14T16:57:58.599Z,24.73
2022-12-14T17:00:37.942Z,24.50
2022-12-14T17:03:09.954Z,23.37
2022-12-14T17:05:44.736Z,24.20
2022-12-14T17:08:13.356Z,24.90
2022-12-14T17:10:49.117Z,23.87
2022-12-14T17:13:31.035Z,23.77
2022-12-14T17:16:18.937Z,25.10
2022-12-14T17:19:05.573Z,24.33
2022-12-14T17:21:33.847Z,23.20
2022-12-14T17:24:02.366Z,26.13
2022-12-14T17:26:35.349Z,28.67
2022-12-14T17:29:05.909Z,26.60
2022-12-14T17:31:37.194Z,27.03
2022-12-14T17:34:05.513Z,26.50
2022-12-14T17:36:35.404Z,25.73
2022-12-14T17:39:09.960Z,25.67
2022-12-14T17:50:36.602Z,25.47
2022-12-14T17:56:07.678Z,23.50
2022-12-14T17:58:37.112Z,24.03
2022-12-14T18:01:08.870Z,23.50
2022-12-14T18:06:32.259Z,22.53
2022-12-14T18:09:25.231Z,23.37
2022-12-14T18:12:22.505Z,23.10
2022-12-14T18:14:52.691Z,23.93
2022-12-14T18:17:33.275Z,23.63
2022-12-14T18:20:07.788Z,25.47
2022-12-14T18:22:37.286Z,24.07
2022-12-14T18:25:23.709Z,25.63
2022-12-14T18:27:54.238Z,25.30
2022-12-14T18:30:23.941Z,25.50
2022-12-14T18:32:58.095Z,25.70
2022-12-14T18:35:32.743Z,25.17
2022-12-14T18:38:03.240Z,25.53
2022-12-14T18:40:47.789Z,25.67
2022-12-14T18:49:37.374Z,23.50
2022-12-14T18:52:10.159Z,22.33
2022-12-14T18:54:38.881Z,23.53
2022-12-14T18:57:09.395Z,21.13
2022-12-14T18:59:46.390Z,22.67
2022-12-14T19:02:16.403Z,21.47
2022-12-14T19:04:55.242Z,19.00
2022-12-14T19:07:24.247Z,21.57
2022-12-14T19:09:53.864Z,19.73
2022-12-14T19:12:23.753Z,20.93
2022-12-14T19:15:01.944Z,18.87
2022-12-14T19:20:18.123Z,19.43
2022-12-14T19:22:48.976Z,18.97
2022-12-14T19:25:17.649Z,18.20
2022-12-14T19:30:39.897Z,20.37
2022-12-14T19:33:08.100Z,20.33
2022-12-14T19:38:50.703Z,18.30
2022-12-14T19:41:23.451Z,18.53
2022-12-14T19:44:11.403Z,18.63
2022-12-14T19:46:43.949Z,18.53
2022-12-14T19:49:20.296Z,17.37
2022-12-14T19:51:57.698Z,17.63
2022-12-14T19:54:28.734Z,17.00
2022-12-14T19:56:57.527Z,15.83
2022-12-14T19:59:27.909Z,15.90
2022-12-14T20:01:56.038Z,17.80
2022-12-14T20:04:24.669Z,14.60
2022-12-14T20:06:54.203Z,15.23
2022-12-14T20:09:22.574Z,15.57
2022-12-14T20:11:53.429Z,16.00
2022-12-14T20:14:21.748Z,14.73
2022-12-14T20:16:54.673Z,13.90
2022-12-14T20:19:23.197Z,14.33
2022-12-14T20:21:51.227Z,15.20
2022-12-14T20:24:19.663Z,14.17
2022-12-14T20:26:49.321Z,13.47
2022-12-14T20:29:18.416Z,13.13
2022-12-14T20:31:46.540Z,13.10
2022-12-14T20:34:16.520Z,14.00
2022-12-14T20:36:46.238Z,14.57
2022-12-14T20:39:15.250Z,14.57
2022-12-14T20:41:43.580Z,14.80
2022-12-14T20:44:13.810Z,12.70
2022-12-14T20:46:47.273Z,13.67
2022-12-14T20:49:19.457Z,13.63
2022-12-14T20:51:51.512Z,12.77
2022-12-14T20:54:22.287Z,14.13
2022-12-14T20:56:50.933Z,13.10
2022-12-14T20:59:21.189Z,14.87
2022-12-14T21:01:55.331Z,14.50
2022-12-14T21:04:26.711Z,12.83
2022-12-14T21:06:58.331Z,14.50
2022-12-14T21:09:27.626Z,13.47
2022-12-14T21:12:13.587Z,13.70
2022-12-14T21:14:43.666Z,15.13
2022-12-14T21:17:13.058Z,14.97
2022-12-14T21:22:32.536Z,15.43
2022-12-14T21:25:04.421Z,14.27
2022-12-14T21:27:37.804Z,15.63
2022-12-14T21:30:08.545Z,14.97
2022-12-14T21:32:37.674Z,14.33
2022-12-14T21:35:08.435Z,15.57
2022-12-14T21:40:33.919Z,14.63
2022-12-14T21:43:01.493Z,16.20
2022-12-14T21:48:15.487Z,15.57
2022-12-14T21:50:45.949Z,15.40
2022-12-14T21:53:15.330Z,17.13
2022-12-14T21:56:13.277Z,15.83
2022-12-14T21:58:40.932Z,16.10
2022-12-14T22:01:10.014Z,17.87
2022-12-14T22:03:49.419Z,17.97
2022-12-14T22:06:19.893Z,17.63
2022-12-14T22:08:48.385Z,18.13
2022-12-14T22:11:16.642Z,17.57
2022-12-14T22:13:44.921Z,17.23
2022-12-14T22:16:14.085Z,17.87
2022-12-14T22:18:42.495Z,17.43
2022-12-14T22:21:10.759Z,17.23
2022-12-14T22:23:43.600Z,18.90
2022-12-14T22:26:12.602Z,17.83
2022-12-14T22:28:41.116Z,18.47
2022-12-14T22:31:09.262Z,18.27
2022-12-14T22:33:37.663Z,18.03
2022-12-14T22:36:06.348Z,18.67
2022-12-14T22:38:34.784Z,17.67
2022-12-14T22:41:04.983Z,17.67
2022-12-14T22:43:37.031Z,18.53
2022-12-14T22:46:06.500Z,17.13
2022-12-14T22:48:36.424Z,17.47
2022-12-14T22:51:14.007Z,17.23
2022-12-14T22:53:42.558Z,17.80
2022-12-14T22:56:16.448Z,17.53
2022-12-14T22:58:49.660Z,16.47
2022-12-14T23:01:19.542Z,16.33
2022-12-14T23:03:48.772Z,17.30
2022-12-14T23:06:19.141Z,16.63
2022-12-14T23:09:06.653Z,16.33
2022-12-14T23:11:54.426Z,16.47
2022-12-14T23:14:40.498Z,16.93
2022-12-14T23:17:26.687Z,16.13
2022-12-14T23:20:11.938Z,15.73
2022-12-14T23:22:57.490Z,17.50
2022-12-14T23:25:43.699Z,17.07
2022-12-14T23:28:31.402Z,18.40
2022-12-14T23:31:17.660Z,20.00
2022-12-14T23:34:03.100Z,21.07
2022-12-14T23:36:48.684Z,22.37
2022-12-14T23:39:34.464Z,21.23
2022-12-14T23:42:20.638Z,21.60
2022-12-14T23:45:08.115Z,20.63
2022-12-14T23:47:53.937Z,19.47
2022-12-14T23:50:39.752Z,21.37
2022-12-14T23:53:26.210Z,19.90
2022-12-14T23:56:12.798Z,20.73
2022-12-14T23:58:58.804Z,20.80
